Time;durP1;ratioP1;P1;durP2;ratioP2;P2;SDS_P1;SDS_P2;PMS_P1;PMS_P2;Temp;Humidity;BMP_temperature;BMP_pressure;BME280_temperature;BME280_humidity;BME280_pressure;Samples;Min_cycle;Max_cycle;Signal;HPM_P1;HPM_P2
2023/06/05 05:07:38;;;;;;;2.72;1.67;;;18.80;99.90;;;;;;5063006;23;20229;-84
2023/06/05 05:10:06;;;;;;;5.32;1.80;;;18.20;99.90;;;;;;4995463;28;20212;-83
2023/06/05 05:12:33;;;;;;;4.00;1.67;;;17.80;99.90;;;;;;4995232;28;20198;-84
2023/06/05 05:15:00;;;;;;;2.53;1.70;;;17.50;99.90;;;;;;4995921;28;20249;-84
2023/06/05 05:17:26;;;;;;;3.88;1.83;;;17.30;99.90;;;;;;4995512;28;20219;-85
2023/06/05 05:19:53;;;;;;;8.43;1.60;;;17.20;99.90;;;;;;4995591;28;20206;-86
2023/06/05 05:22:20;;;;;;;2.03;1.60;;;17.10;99.90;;;;;;4995175;28;20195;-86
2023/06/05 05:24:48;;;;;;;2.63;1.45;;;17.10;99.90;;;;;;4995389;28;20202;-89
2023/06/05 05:27:15;;;;;;;1.98;1.45;;;17.10;99.90;;;;;;4996272;28;20191;-88
2023/06/05 05:29:42;;;;;;;1.65;1.30;;;17.00;99.90;;;;;;4996210;28;20209;-87
2023/06/05 05:32:08;;;;;;;4.82;1.52;;;17.00;99.90;;;;;;4995580;28;20199;-88
2023/06/05 05:34:35;;;;;;;3.03;1.60;;;17.00;99.90;;;;;;4995611;28;20667;-88
2023/06/05 05:37:03;;;;;;;3.90;1.80;;;17.00;99.90;;;;;;4995568;28;20704;-88
2023/06/05 05:39:30;;;;;;;3.15;1.73;;;17.00;99.90;;;;;;4996075;28;20222;-89
2023/06/05 05:41:59;;;;;;;4.45;1.80;;;17.00;99.90;;;;;;4996398;28;20229;-88
2023/06/05 05:44:26;;;;;;;3.15;1.90;;;17.00;99.90;;;;;;4995649;28;20195;-89
2023/06/05 05:46:53;;;;;;;3.25;1.70;;;17.10;99.90;;;;;;4995678;28;20203;-88
2023/06/05 05:49:19;;;;;;;4.07;1.58;;;17.00;99.90;;;;;;4995275;28;20195;-87
2023/06/05 05:51:46;;;;;;;3.67;1.60;;;17.10;99.90;;;;;;4995536;28;20197;-89
2023/06/05 05:54:13;;;;;;;3.45;1.88;;;17.20;99.90;;;;;;4995575;28;20195;-89
2023/06/05 05:56:42;;;;;;;2.58;1.48;;;17.30;99.90;;;;;;4995700;28;20302;-88
2023/06/05 05:59:10;;;;;;;2.63;1.60;;;17.40;99.90;;;;;;4995452;28;20675;-86
2023/06/05 06:01:37;;;;;;;2.88;1.73;;;17.40;99.90;;;;;;4995317;28;20554;-88
2023/06/05 06:04:04;;;;;;;4.22;1.83;;;17.40;99.90;;;;;;4994938;28;20269;-89
2023/06/05 06:06:33;;;;;;;4.10;1.60;;;17.50;99.90;;;;;;4994579;28;22175;-88
2023/06/05 06:09:00;;;;;;;3.15;1.67;;;17.60;99.90;;;;;;4995483;28;20731;-89
2023/06/05 06:11:26;;;;;;;4.43;1.70;;;17.70;99.90;;;;;;4995048;28;20286;-89
2023/06/05 06:13:53;;;;;;;2.78;1.38;;;17.90;99.90;;;;;;4995019;28;20199;-89
2023/06/05 06:16:21;;;;;;;4.40;1.85;;;18.00;99.90;;;;;;4995008;28;20229;-89
2023/06/05 06:18:48;;;;;;;4.97;1.63;;;18.20;99.90;;;;;;4994790;28;20191;-88
2023/06/05 06:21:15;;;;;;;2.22;1.55;;;18.30;99.90;;;;;;4994954;28;20740;-87
2023/06/05 06:23:44;;;;;;;3.58;1.95;;;18.40;99.90;;;;;;4994493;28;20695;-87
2023/06/05 06:26:11;;;;;;;2.88;1.75;;;18.50;99.90;;;;;;4994976;28;20283;-86
2023/06/05 06:28:38;;;;;;;2.33;1.77;;;18.60;99.90;;;;;;4994903;28;20218;-86
2023/06/05 06:31:05;;;;;;;5.78;1.60;;;18.80;99.90;;;;;;4994996;28;20199;-87
2023/06/05 06:33:33;;;;;;;2.47;1.63;;;18.90;99.90;;;;;;4994515;28;20214;-86
2023/06/05 06:36:00;;;;;;;3.80;1.92;;;19.00;99.90;;;;;;4994932;28;20706;-86
2023/06/05 06:38:30;;;;;;;5.10;2.20;;;19.20;99.90;;;;;;4994586;28;20203;-86
2023/06/05 06:40:57;;;;;;;2.92;1.60;;;19.30;99.90;;;;;;4994644;28;20195;-86
2023/06/05 06:43:23;;;;;;;2.30;1.55;;;19.40;99.90;;;;;;4994495;28;20205;-86
2023/06/05 06:45:51;;;;;;;4.35;2.00;;;19.50;99.90;;;;;;4994310;28;20198;-87
2023/06/05 06:48:18;;;;;;;4.00;2.05;;;19.60;99.90;;;;;;4994552;28;20194;-86
2023/06/05 06:50:46;;;;;;;6.75;1.80;;;19.80;99.90;;;;;;4994601;28;20541;-86
2023/06/05 06:53:14;;;;;;;2.97;2.00;;;19.90;99.90;;;;;;4994178;28;20206;-86
2023/06/05 06:55:41;;;;;;;4.05;1.70;;;20.00;99.90;;;;;;4994131;28;20195;-86
2023/06/05 06:58:08;;;;;;;3.80;1.80;;;20.10;99.90;;;;;;4994535;28;20202;-87
2023/06/05 07:00:34;;;;;;;3.03;1.60;;;20.20;99.90;;;;;;4993997;28;20195;-86
2023/06/05 07:03:01;;;;;;;4.68;1.60;;;20.40;99.90;;;;;;4994566;28;20195;-87
2023/06/05 07:05:28;;;;;;;3.75;1.90;;;20.50;99.90;;;;;;4993967;28;20199;-86
2023/06/05 07:08:00;;;;;;;3.35;2.50;;;20.60;99.90;;;;;;4993880;28;20195;-86
2023/06/05 07:10:27;;;;;;;5.72;2.17;;;20.70;99.90;;;;;;4993780;28;20245;-86
2023/06/05 07:12:54;;;;;;;5.38;1.52;;;20.80;99.90;;;;;;4993879;28;20580;-87
2023/06/05 07:15:21;;;;;;;2.10;1.58;;;20.90;96.90;;;;;;4993862;28;20223;-86
2023/06/05 07:17:48;;;;;;;2.03;1.52;;;20.90;95.90;;;;;;4993177;28;20563;-87
2023/06/05 07:20:14;;;;;;;4.10;1.73;;;20.90;94.80;;;;;;4993764;28;20197;-87
2023/06/05 07:22:44;;;;;;;6.80;1.83;;;21.00;93.80;;;;;;4993635;28;20195;-86
2023/06/05 07:25:14;;;;;;;6.50;1.95;;;21.10;93.60;;;;;;4993641;28;20653;-86
2023/06/05 07:27:41;;;;;;;8.52;2.58;;;21.30;92.00;;;;;;4993945;28;20198;-87
2023/06/05 07:30:09;;;;;;;8.55;2.17;;;21.40;90.20;;;;;;4993915;28;20195;-87
2023/06/05 07:32:35;;;;;;;9.57;2.00;;;21.50;86.50;;;;;;4993393;28;20195;-86
2023/06/05 07:35:03;;;;;;;6.45;2.00;;;21.50;84.90;;;;;;4993556;28;20191;-86
2023/06/05 07:37:29;;;;;;;6.20;2.03;;;21.60;81.90;;;;;;4993616;28;20249;-87
2023/06/05 07:39:56;;;;;;;8.18;1.92;;;21.70;78.20;;;;;;4993694;28;20203;-86
2023/06/05 07:42:24;;;;;;;5.38;1.55;;;21.80;73.70;;;;;;4993320;28;20206;-86
2023/06/05 07:44:51;;;;;;;6.28;1.85;;;21.90;67.30;;;;;;4987469;28;20199;-87
2023/06/05 07:47:18;;;;;;;7.22;1.90;;;21.90;66.50;;;;;;4993357;28;20195;-86
2023/06/05 07:49:45;;;;;;;6.97;1.88;;;22.10;61.70;;;;;;4993482;28;20210;-86
2023/06/05 07:52:11;;;;;;;5.28;1.90;;;22.10;58.10;;;;;;4993634;28;20608;-87
2023/06/05 07:54:38;;;;;;;3.03;1.55;;;22.20;58.10;;;;;;4977725;28;20195;-87
2023/06/05 07:57:07;;;;;;;2.65;1.60;;;22.40;54.60;;;;;;4993360;28;20261;-87
2023/06/05 07:59:36;;;;;;;4.03;1.58;;;22.50;49.40;;;;;;4992969;28;20199;-87
2023/06/05 08:02:02;;;;;;;3.53;1.40;;;22.50;43.90;;;;;;4993061;28;20202;-86
2023/06/05 08:04:29;;;;;;;2.55;2.13;;;22.60;40.10;;;;;;4993013;28;20198;-87
2023/06/05 08:06:56;;;;;;;2.28;1.50;;;22.70;37.40;;;;;;4993122;28;20241;-86
2023/06/05 08:09:23;;;;;;;2.05;1.48;;;22.80;35.00;;;;;;4993027;28;20199;-86
2023/06/05 08:11:50;;;;;;;2.20;1.58;;;22.90;30.70;;;;;;4993332;28;20202;-86
2023/06/05 08:14:16;;;;;;;1.88;1.20;;;22.90;29.10;;;;;;4992809;28;20210;-87
2023/06/05 08:16:45;;;;;;;2.88;1.42;;;23.00;26.60;;;;;;4992771;28;20215;-87
2023/06/05 08:19:11;;;;;;;4.65;1.52;;;23.00;25.60;;;;;;4992827;28;20643;-87
2023/06/05 08:21:38;;;;;;;3.72;1.40;;;23.10;25.60;;;;;;4992843;28;20199;-87
2023/06/05 08:24:06;;;;;;;2.35;1.70;;;23.10;23.80;;;;;;4993301;28;20195;-87
2023/06/05 08:26:33;;;;;;;3.75;1.63;;;23.20;22.40;;;;;;4992663;28;20575;-86
2023/06/05 08:29:00;;;;;;;2.30;1.35;;;23.40;20.90;;;;;;4996493;28;20195;-87
2023/06/05 08:31:27;;;;;;;2.45;1.55;;;23.50;18.30;;;;;;4999131;28;20213;-86
2023/06/05 08:33:55;;;;;;;2.95;1.60;;;23.60;16.10;;;;;;4999236;28;20205;-86
2023/06/05 08:36:24;;;;;;;2.17;1.40;;;23.60;14.60;;;;;;4999328;28;20198;-86
2023/06/05 08:38:50;;;;;;;2.25;1.20;;;23.60;12.50;;;;;;4999652;28;20229;-86
2023/06/05 08:41:18;;;;;;;2.15;1.70;;;23.70;12.20;;;;;;4999373;28;20207;-86
2023/06/05 08:43:45;;;;;;;4.82;1.50;;;23.80;28.00;;;;;;4999065;28;20201;-86
2023/06/05 08:46:13;;;;;;;1.75;1.30;;;23.80;9.80;;;;;;4999224;28;20684;-87
2023/06/05 08:48:44;;;;;;;3.47;1.88;;;23.80;9.00;;;;;;4983691;28;20194;-86
2023/06/05 08:51:13;;;;;;;5.03;1.67;;;23.80;8.30;;;;;;4999556;28;20226;-87
2023/06/05 08:53:42;;;;;;;3.50;1.73;;;23.90;7.80;;;;;;4998988;28;20198;-86
2023/06/05 08:56:09;;;;;;;7.82;2.00;;;24.00;6.00;;;;;;4998856;28;20783;-86
2023/06/05 08:58:37;;;;;;;7.40;1.70;;;24.00;4.50;;;;;;4998938;28;20242;-87
2023/06/05 09:01:04;;;;;;;3.63;1.67;;;24.10;3.30;;;;;;4999128;28;20304;-86
2023/06/05 09:03:33;;;;;;;3.00;1.48;;;24.20;1.00;;;;;;4999071;28;20198;-86
2023/06/05 09:06:00;;;;;;;3.83;2.47;;;24.30;1.10;;;;;;4999185;28;20210;-86
2023/06/05 09:08:33;;;;;;;3.20;1.40;;;24.40;1.00;;;;;;4998716;28;20209;-87
2023/06/05 09:11:22;;;;;;;5.18;2.10;;;24.40;1.00;;;;;;4998738;28;20202;-87
2023/06/05 09:13:49;;;;;;;7.93;2.10;;;24.40;1.00;;;;;;4999124;28;20195;-86
2023/06/05 09:16:19;;;;;;;7.88;2.08;;;24.40;1.00;;;;;;4998749;28;20586;-87
2023/06/05 09:18:54;;;;;;;4.90;2.50;;;24.40;1.00;;;;;;4998765;28;20199;-86
2023/06/05 09:21:20;;;;;;;3.88;1.70;;;24.30;1.00;;;;;;4998867;28;20564;-86
2023/06/05 09:23:49;;;;;;;3.58;1.77;;;24.40;1.00;;;;;;4999054;28;20199;-86
2023/06/05 09:26:16;;;;;;;5.65;1.58;;;24.50;1.00;;;;;;4998580;28;20201;-87
2023/06/05 09:28:57;;;;;;;2.80;1.30;;;24.60;1.00;;;;;;4998683;28;20194;-87
2023/06/05 09:31:24;;;;;;;3.53;1.40;;;24.60;1.00;;;;;;4998704;28;20290;-86
2023/06/05 09:33:57;;;;;;;3.40;1.35;;;24.70;8.10;;;;;;4998670;28;20202;-86
2023/06/05 09:36:27;;;;;;;1.70;1.35;;;24.70;1.00;;;;;;4998778;28;20190;-86
2023/06/05 09:38:55;;;;;;;1.77;1.25;;;24.70;1.00;;;;;;4997359;28;20256;-87
2023/06/05 09:41:22;;;;;;;1.60;1.35;;;24.80;1.00;;;;;;4994423;28;20295;-87
2023/06/05 09:43:50;;;;;;;3.13;1.20;;;24.90;1.00;;;;;;4995401;28;20195;-86
2023/06/05 09:46:17;;;;;;;2.70;1.45;;;24.90;1.00;;;;;;4995392;28;20618;-87
2023/06/05 09:48:53;;;;;;;2.58;1.02;;;25.00;1.00;;;;;;4995492;28;20657;-86
2023/06/05 09:51:20;;;;;;;1.50;1.23;;;25.00;1.00;;;;;;4995796;28;20266;-86
2023/06/05 09:53:50;;;;;;;2.75;1.33;;;25.00;1.00;;;;;;4995759;28;20227;-86
2023/06/05 09:56:20;;;;;;;4.03;1.10;;;25.00;1.00;;;;;;4995211;28;20285;-86
2023/06/05 09:58:48;;;;;;;1.88;1.30;;;25.00;1.00;;;;;;4995159;28;20262;-86
2023/06/05 10:01:18;;;;;;;2.40;1.17;;;25.00;1.00;;;;;;4995294;28;20206;-86
2023/06/05 10:03:48;;;;;;;3.83;1.60;;;25.00;1.00;;;;;;4979918;28;20579;-86
2023/06/05 10:06:23;;;;;;;2.95;1.48;;;25.00;1.00;;;;;;4995558;28;20231;-86
2023/06/05 10:08:50;;;;;;;1.75;1.23;;;25.10;1.00;;;;;;4994991;28;20276;-86
2023/06/05 10:11:19;;;;;;;2.25;1.48;;;25.20;1.00;;;;;;4995134;28;20198;-87
2023/06/05 10:13:47;;;;;;;3.42;1.20;;;25.20;1.00;;;;;;4994799;28;20206;-87
2023/06/05 10:16:15;;;;;;;1.85;1.33;;;25.10;1.00;;;;;;4994784;28;20202;-86
2023/06/05 10:18:42;;;;;;;3.70;1.38;;;25.10;1.00;;;;;;4979385;28;20214;-86
2023/06/05 10:21:10;;;;;;;1.30;1.20;;;25.20;1.00;;;;;;4995266;28;20195;-86
2023/06/05 10:23:37;;;;;;;5.97;1.60;;;25.10;1.00;;;;;;4994476;28;20211;-86
2023/06/05 10:26:16;;;;;;;2.70;1.40;;;25.20;1.00;;;;;;4994655;28;20218;-86
2023/06/05 10:28:55;;;;;;;4.13;1.58;;;25.30;1.00;;;;;;4994856;28;20653;-86
2023/06/05 10:31:29;;;;;;;1.70;1.38;;;25.40;1.00;;;;;;4994783;28;20770;-86
2023/06/05 10:34:24;;;;;;;2.25;1.30;;;25.50;1.00;;;;;;4994828;28;20203;-86
2023/06/05 10:37:21;;;;;;;2.38;1.38;;;25.60;1.00;;;;;;4980490;28;20677;-86
2023/06/05 10:39:49;;;;;;;2.15;1.50;;;25.70;1.00;;;;;;4973976;28;20202;-86
2023/06/05 10:42:24;;;;;;;3.25;1.30;;;25.80;1.00;;;;;;4995129;28;20234;-86
2023/06/05 10:44:53;;;;;;;1.55;1.20;;;25.80;1.00;;;;;;4994834;28;20190;-86
2023/06/05 10:47:51;;;;;;;2.40;1.35;;;25.70;1.00;;;;;;4994545;28;20683;-87
2023/06/05 10:50:27;;;;;;;2.80;1.60;;;25.60;1.00;;;;;;4994602;28;20668;-87
2023/06/05 10:52:56;;;;;;;3.70;1.50;;;25.60;1.00;;;;;;4993930;28;20194;-87
2023/06/05 10:55:24;;;;;;;2.15;1.23;;;25.50;1.00;;;;;;4994409;28;20203;-87
2023/06/05 10:58:08;;;;;;;2.45;1.48;;;25.60;1.00;;;;;;4994207;28;20211;-87
2023/06/05 11:00:37;;;;;;;2.42;1.40;;;25.50;1.00;;;;;;4994217;28;20206;-86
2023/06/05 11:03:05;;;;;;;2.60;1.13;;;25.60;1.00;;;;;;4994418;28;20195;-86
2023/06/05 11:05:32;;;;;;;4.35;1.42;;;25.70;1.00;;;;;;4993822;28;20195;-86
2023/06/05 11:08:14;;;;;;;3.50;1.33;;;25.60;1.00;;;;;;4994078;28;20203;-87
2023/06/05 11:11:05;;;;;;;2.90;1.38;;;25.60;1.00;;;;;;4994127;28;20254;-87
2023/06/05 11:13:55;;;;;;;2.10;1.30;;;25.70;1.00;;;;;;4994072;28;20203;-86
2023/06/05 11:16:36;;;;;;;2.50;1.30;;;25.80;1.00;;;;;;4993967;28;20258;-87
2023/06/05 11:19:36;;;;;;;2.10;1.40;;;25.90;1.00;;;;;;4993849;28;20280;-86
2023/06/05 11:22:08;;;;;;;3.55;1.63;;;26.10;1.00;;;;;;4973271;28;20196;-86
2023/06/05 11:24:36;;;;;;;1.42;1.23;;;26.20;1.00;;;;;;4993584;28;20202;-87
2023/06/05 11:27:03;;;;;;;1.90;1.35;;;26.20;1.00;;;;;;4994131;28;20195;-86
2023/06/05 11:29:30;;;;;;;5.35;1.50;;;26.00;1.00;;;;;;4993600;28;20199;-87
2023/06/05 11:31:59;;;;;;;3.75;1.40;;;26.00;1.00;;;;;;4993395;28;20201;-87
2023/06/05 11:34:27;;;;;;;2.97;1.35;;;26.00;1.00;;;;;;4993519;28;20209;-86
2023/06/05 11:36:54;;;;;;;2.22;1.40;;;26.00;1.00;;;;;;4993542;28;20226;-87
2023/06/05 11:39:22;;;;;;;1.65;1.30;;;26.10;1.00;;;;;;4993500;28;20225;-87
2023/06/05 11:41:51;;;;;;;4.03;1.35;;;26.30;1.00;;;;;;4993720;28;20195;-86
2023/06/05 11:44:32;;;;;;;3.80;1.52;;;26.30;1.00;;;;;;4993357;28;20199;-87
2023/06/05 11:47:00;;;;;;;2.72;1.50;;;26.50;1.00;;;;;;4993203;28;20277;-87
2023/06/05 11:49:28;;;;;;;3.03;1.20;;;26.60;1.00;;;;;;4993247;28;20199;-86
2023/06/05 11:51:55;;;;;;;3.88;1.40;;;26.60;1.00;;;;;;4993034;28;20199;-87
2023/06/05 11:54:31;;;;;;;4.78;1.45;;;26.60;1.00;;;;;;4993333;28;20199;-86
2023/06/05 11:57:08;;;;;;;2.47;1.50;;;26.60;1.00;;;;;;4992278;28;20209;-87
2023/06/05 11:59:36;;;;;;;2.58;1.33;;;26.50;1.00;;;;;;4993231;28;20195;-87
2023/06/05 12:02:05;;;;;;;3.08;1.48;;;26.40;1.00;;;;;;4992917;28;20195;-87
2023/06/05 12:04:32;;;;;;;3.13;1.50;;;26.50;1.00;;;;;;4992460;28;20195;-87
2023/06/05 12:06:59;;;;;;;1.63;1.33;;;26.60;1.00;;;;;;4992926;28;20211;-87
2023/06/05 12:09:26;;;;;;;2.35;1.70;;;26.80;1.00;;;;;;4993138;28;20554;-86
2023/06/05 12:11:53;;;;;;;4.30;1.80;;;26.80;1.00;;;;;;4993249;28;20202;-87
2023/06/05 12:14:31;;;;;;;4.10;1.50;;;26.80;1.00;;;;;;4992933;28;20199;-87
2023/06/05 12:16:58;;;;;;;2.15;1.40;;;26.80;1.00;;;;;;4993026;28;20198;-86
2023/06/05 12:19:26;;;;;;;8.00;1.77;;;26.90;1.00;;;;;;4992520;28;20219;-87
2023/06/05 12:22:03;;;;;;;5.30;1.50;;;26.90;1.00;;;;;;4993004;28;20573;-87
2023/06/05 12:24:31;;;;;;;2.00;1.48;;;26.90;1.00;;;;;;4993026;28;20247;-86
2023/06/05 12:27:00;;;;;;;3.72;1.70;;;27.00;1.00;;;;;;4993171;28;20294;-87
2023/06/05 12:29:29;;;;;;;3.65;1.40;;;27.10;1.00;;;;;;4992749;28;20205;-86
2023/06/05 12:31:57;;;;;;;3.70;1.38;;;27.20;1.00;;;;;;4992824;28;20197;-87
2023/06/05 12:34:42;;;;;;;3.92;1.50;;;27.30;1.00;;;;;;4992553;28;20226;-87
2023/06/05 12:37:09;;;;;;;6.72;1.42;;;27.10;1.00;;;;;;4993026;28;20187;-87
2023/06/05 12:39:36;;;;;;;2.53;1.30;;;27.10;1.00;;;;;;4992542;28;20222;-87
2023/06/05 12:42:03;;;;;;;1.95;1.58;;;27.10;1.00;;;;;;4993101;28;20203;-87
2023/06/05 12:44:30;;;;;;;2.08;1.42;;;27.20;1.00;;;;;;4992711;28;20194;-87
2023/06/05 12:46:57;;;;;;;3.83;1.30;;;27.30;1.00;;;;;;4992725;28;20203;-87
2023/06/05 12:49:24;;;;;;;3.25;1.55;;;27.40;1.00;;;;;;4992187;28;20657;-87
2023/06/05 12:51:53;;;;;;;5.90;1.50;;;27.40;1.00;;;;;;4992821;28;20191;-86
2023/06/05 12:54:19;;;;;;;7.82;1.88;;;27.50;1.00;;;;;;4992914;28;20568;-87
2023/06/05 12:56:47;;;;;;;3.58;1.73;;;27.60;1.00;;;;;;4992658;28;20199;-87
2023/06/05 12:59:14;;;;;;;4.38;1.52;;;27.60;1.00;;;;;;4992279;28;20215;-87
2023/06/05 13:01:41;;;;;;;3.42;1.40;;;27.60;1.00;;;;;;4992601;28;20191;-87
2023/06/05 13:04:08;;;;;;;3.67;1.65;;;27.70;1.00;;;;;;4992394;28;20198;-87
2023/06/05 13:06:37;;;;;;;2.45;1.33;;;27.80;1.00;;;;;;4992403;28;20246;-87
2023/06/05 13:09:05;;;;;;;1.38;1.20;;;27.80;1.00;;;;;;4992681;28;20197;-86
2023/06/05 13:11:32;;;;;;;2.95;1.70;;;27.80;1.00;;;;;;4992267;28;20265;-87
2023/06/05 13:14:00;;;;;;;3.42;1.58;;;27.70;1.00;;;;;;4992332;28;20205;-87
2023/06/05 13:16:27;;;;;;;3.47;1.30;;;27.70;1.00;;;;;;4994746;28;20199;-87
2023/06/05 13:18:54;;;;;;;2.83;1.63;;;27.70;1.00;;;;;;4996076;28;20696;-87
2023/06/05 13:21:20;;;;;;;2.28;1.60;;;27.50;1.00;;;;;;4996275;28;20684;-86
2023/06/05 13:23:47;;;;;;;4.00;1.55;;;27.20;1.00;;;;;;4994994;28;20205;-86
2023/06/05 13:26:15;;;;;;;2.10;1.50;;;26.80;1.00;;;;;;4996121;28;20214;-87
2023/06/05 13:28:44;;;;;;;2.65;1.40;;;26.50;1.00;;;;;;4996283;28;20265;-87
2023/06/05 13:31:11;;;;;;;5.18;1.90;;;26.50;1.00;;;;;;4996022;28;20254;-87
2023/06/05 13:33:37;;;;;;;3.90;1.65;;;26.60;1.00;;;;;;4995778;28;20199;-87
2023/06/05 13:36:04;;;;;;;3.70;1.75;;;26.80;1.00;;;;;;4996153;28;20190;-87
2023/06/05 13:38:31;;;;;;;2.58;1.63;;;27.00;1.00;;;;;;4995493;28;20217;-87
2023/06/05 13:40:58;;;;;;;2.65;1.50;;;27.10;1.00;;;;;;4995695;28;20660;-87
2023/06/05 13:43:26;;;;;;;4.10;1.60;;;27.20;1.00;;;;;;4995504;28;20199;-87
2023/06/05 13:45:53;;;;;;;4.80;1.45;;;27.30;1.00;;;;;;4995786;28;20191;-87
2023/06/05 13:48:19;;;;;;;2.25;1.65;;;27.30;1.00;;;;;;4995516;28;20572;-87
2023/06/05 13:50:46;;;;;;;5.43;1.77;;;27.30;1.00;;;;;;4995732;28;20550;-86
2023/06/05 13:53:13;;;;;;;2.88;1.38;;;27.40;1.00;;;;;;4995671;28;20567;-87
2023/06/05 13:55:41;;;;;;;2.47;1.40;;;27.50;1.00;;;;;;4995312;28;20199;-87
2023/06/05 13:58:09;;;;;;;4.60;1.75;;;27.60;1.00;;;;;;4995293;28;20227;-86
2023/06/05 14:00:37;;;;;;;1.92;1.60;;;27.60;1.00;;;;;;4995281;28;20203;-87
2023/06/05 14:03:04;;;;;;;2.50;1.77;;;27.60;1.00;;;;;;4995497;28;20691;-87
2023/06/05 14:05:31;;;;;;;2.05;1.40;;;27.60;1.00;;;;;;4995223;28;20217;-87
2023/06/05 14:07:58;;;;;;;3.35;1.60;;;27.60;1.00;;;;;;4995252;28;20692;-87
2023/06/05 14:10:25;;;;;;;4.70;1.58;;;27.70;1.00;;;;;;4995156;28;20191;-87
2023/06/05 14:12:53;;;;;;;3.13;1.83;;;27.80;1.00;;;;;;4995289;28;20214;-87
2023/06/05 14:15:20;;;;;;;1.98;1.45;;;27.90;1.00;;;;;;4994769;28;20195;-87
2023/06/05 14:17:51;;;;;;;10.60;1.70;;;28.00;1.00;;;;;;4995335;28;20193;-87
2023/06/05 14:20:19;;;;;;;4.13;1.83;;;28.00;1.00;;;;;;4994917;28;20218;-87
2023/06/05 14:22:46;;;;;;;1.98;1.50;;;28.00;1.00;;;;;;4995083;28;20222;-87
2023/06/05 14:25:13;;;;;;;2.47;1.58;;;28.10;1.00;;;;;;4995021;28;20202;-87
2023/06/05 14:27:39;;;;;;;2.25;1.40;;;28.00;1.00;;;;;;4994305;28;20206;-88
2023/06/05 14:30:08;;;;;;;2.20;1.63;;;27.80;1.00;;;;;;4995218;28;20659;-87
2023/06/05 14:32:35;;;;;;;1.90;1.55;;;27.50;1.00;;;;;;4994789;28;20206;-87
2023/06/05 14:35:04;;;;;;;3.95;1.35;;;27.50;1.00;;;;;;4994668;28;20202;-87
2023/06/05 14:37:30;;;;;;;1.67;1.35;;;27.50;1.00;;;;;;4994710;28;20557;-86
2023/06/05 14:39:57;;;;;;;4.15;1.63;;;27.50;1.00;;;;;;4994396;28;20217;-87
2023/06/05 14:42:24;;;;;;;2.33;1.58;;;27.60;1.00;;;;;;4993708;28;20551;-88
2023/06/05 14:44:51;;;;;;;2.47;1.50;;;27.70;1.00;;;;;;4994429;28;20191;-89
2023/06/05 14:47:18;;;;;;;1.70;1.40;;;27.70;1.00;;;;;;4994501;28;20451;-89
2023/06/05 14:49:45;;;;;;;4.43;1.50;;;27.60;1.00;;;;;;4994426;28;20653;-89
2023/06/05 14:52:13;;;;;;;2.13;1.48;;;27.60;1.00;;;;;;4994423;28;20199;-89
2023/06/05 14:54:40;;;;;;;5.95;1.75;;;27.60;1.00;;;;;;4994424;28;20210;-89
2023/06/05 14:57:07;;;;;;;4.28;1.50;;;27.60;1.00;;;;;;4994801;28;20203;-89
2023/06/05 14:59:34;;;;;;;2.03;1.50;;;27.70;1.00;;;;;;4993557;28;20221;-87
2023/06/05 15:02:01;;;;;;;2.95;1.40;;;27.90;1.00;;;;;;4993141;28;20202;-88
2023/06/05 15:04:28;;;;;;;1.60;1.40;;;27.90;1.00;;;;;;4992667;28;20194;-87
2023/06/05 15:06:55;;;;;;;4.30;1.40;;;27.80;1.00;;;;;;4992647;28;20719;-88
2023/06/05 15:09:23;;;;;;;1.95;1.70;;;27.60;1.00;;;;;;4993988;28;20199;-87
2023/06/05 15:11:50;;;;;;;2.17;1.50;;;27.50;1.00;;;;;;4992259;28;20187;-88
2023/06/05 15:14:18;;;;;;;3.75;1.30;;;27.50;1.00;;;;;;4992647;28;20199;-87
2023/06/05 15:16:44;;;;;;;5.00;1.70;;;27.40;1.00;;;;;;4992704;28;20221;-87
2023/06/05 15:19:12;;;;;;;2.00;1.33;;;27.40;1.00;;;;;;4992797;28;20215;-88
2023/06/05 15:21:39;;;;;;;3.45;1.70;;;27.30;1.00;;;;;;4993765;28;20214;-88
2023/06/05 15:24:07;;;;;;;33.80;2.80;;;27.20;1.00;;;;;;4993425;28;20733;-89
2023/06/05 15:26:35;;;;;;;2.10;1.58;;;27.00;1.00;;;;;;4993711;28;20205;-88
2023/06/05 15:29:02;;;;;;;1.40;1.30;;;26.90;1.00;;;;;;4993462;28;20642;-88
2023/06/05 15:31:29;;;;;;;3.85;1.60;;;27.00;1.00;;;;;;4993450;28;20261;-88
2023/06/05 15:33:55;;;;;;;5.85;1.65;;;27.10;1.00;;;;;;4992493;28;20669;-88
2023/06/05 15:36:22;;;;;;;3.53;1.60;;;27.30;1.00;;;;;;4993721;28;20191;-88
2023/06/05 15:38:49;;;;;;;3.60;1.50;;;27.40;1.00;;;;;;4992840;28;20218;-88
2023/06/05 15:41:16;;;;;;;1.70;1.30;;;27.50;1.00;;;;;;4993094;28;20631;-89
2023/06/05 15:43:44;;;;;;;5.93;1.60;;;27.50;1.00;;;;;;4994304;28;20191;-90
2023/06/05 15:46:11;;;;;;;2.63;1.48;;;27.50;1.00;;;;;;4994358;28;20699;-89
2023/06/05 15:48:38;;;;;;;3.42;1.88;;;27.50;1.00;;;;;;4994178;28;20193;-90
2023/06/05 15:51:05;;;;;;;4.07;1.77;;;27.50;1.00;;;;;;4993530;28;20986;-89
2023/06/05 15:53:32;;;;;;;2.97;1.65;;;27.40;1.00;;;;;;4993562;28;20665;-89
2023/06/05 15:56:00;;;;;;;1.70;1.40;;;27.40;1.00;;;;;;4993554;28;20199;-88
2023/06/05 15:58:27;;;;;;;2.40;1.40;;;27.50;1.00;;;;;;4992456;28;20205;-87
2023/06/05 16:00:55;;;;;;;2.05;1.45;;;27.60;1.00;;;;;;4993288;28;20653;-87
2023/06/05 16:03:22;;;;;;;4.30;1.40;;;27.70;1.00;;;;;;4993309;28;20210;-88
2023/06/05 16:05:48;;;;;;;1.75;1.42;;;27.60;1.00;;;;;;4993057;28;20227;-88
2023/06/05 16:08:16;;;;;;;2.20;1.60;;;27.50;1.00;;;;;;4993383;28;20198;-87
2023/06/05 16:10:43;;;;;;;5.22;1.42;;;27.30;1.00;;;;;;4991364;28;20282;-87
2023/06/05 16:13:11;;;;;;;1.75;1.40;;;27.40;1.00;;;;;;4992680;28;20203;-85
2023/06/05 16:15:39;;;;;;;1.77;1.50;;;27.40;1.00;;;;;;4993018;28;20203;-86
2023/06/05 16:18:07;;;;;;;3.55;1.35;;;27.50;1.00;;;;;;4993016;28;20199;-86
2023/06/05 16:20:34;;;;;;;5.05;1.52;;;27.40;1.00;;;;;;4992228;28;20219;-86
2023/06/05 16:23:01;;;;;;;3.53;1.55;;;27.40;1.00;;;;;;4992807;28;20195;-86
2023/06/05 16:25:28;;;;;;;3.97;1.60;;;27.40;1.00;;;;;;4992349;28;20198;-86
2023/06/05 16:27:55;;;;;;;2.20;1.50;;;27.50;1.00;;;;;;4992124;28;20206;-86
2023/06/05 16:30:21;;;;;;;2.90;1.42;;;27.30;1.00;;;;;;4992335;28;20191;-85
2023/06/05 16:32:49;;;;;;;4.13;1.38;;;27.40;1.00;;;;;;4990723;28;20200;-86
2023/06/05 16:35:18;;;;;;;1.92;1.45;;;27.50;1.00;;;;;;4991626;28;20202;-86
2023/06/05 16:37:44;;;;;;;5.22;1.40;;;27.70;1.00;;;;;;4991737;28;20202;-86
2023/06/05 16:40:12;;;;;;;2.70;1.42;;;27.90;1.00;;;;;;4991278;28;20222;-86
2023/06/05 16:42:39;;;;;;;2.50;1.70;;;28.10;1.00;;;;;;4992242;28;20202;-86
2023/06/05 16:45:07;;;;;;;215.07;11.20;;;28.40;1.00;;;;;;4992504;28;20219;-86
2023/06/05 16:47:34;;;;;;;146.95;7.22;;;28.60;1.00;;;;;;4992219;28;20203;-87
2023/06/05 16:50:01;;;;;;;602.55;33.20;;;28.80;1.00;;;;;;4994171;28;20199;-86
2023/06/05 16:52:29;;;;;;;81.78;6.00;;;28.90;1.00;;;;;;4996208;28;20194;-87
2023/06/05 16:54:56;;;;;;;146.88;8.95;;;29.00;1.00;;;;;;4996304;28;20201;-87
2023/06/05 16:57:22;;;;;;;185.30;9.88;;;29.20;1.00;;;;;;4994954;28;20205;-87
2023/06/05 16:59:49;;;;;;;482.75;24.08;;;29.30;1.00;;;;;;4995656;28;20228;-88
2023/06/05 17:02:16;;;;;;;770.30;42.60;;;29.50;1.00;;;;;;4995533;28;20198;-87
2023/06/05 17:04:43;;;;;;;37.72;3.25;;;29.60;1.00;;;;;;4995199;28;20768;-87
2023/06/05 17:07:10;;;;;;;11.18;1.85;;;29.70;1.00;;;;;;4994803;28;20245;-89
2023/06/05 17:09:38;;;;;;;6.05;2.17;;;29.90;1.00;;;;;;4996723;28;20198;-88
2023/06/05 17:12:05;;;;;;;3.42;1.73;;;30.10;1.00;;;;;;4996492;28;20665;-87
2023/06/05 17:14:32;;;;;;;11.77;2.00;;;30.30;1.00;;;;;;4996402;28;20198;-88
2023/06/05 17:17:00;;;;;;;6.72;1.63;;;30.50;1.00;;;;;;4996206;28;20196;-89
2023/06/05 17:19:26;;;;;;;7.60;1.83;;;30.60;1.00;;;;;;4995881;28;20211;-89
2023/06/05 17:21:53;;;;;;;9.88;1.70;;;30.60;1.00;;;;;;4996424;28;20187;-89
2023/06/05 17:24:22;;;;;;;8.25;1.60;;;30.80;1.00;;;;;;4996088;28;20198;-89
2023/06/05 17:26:50;;;;;;;3.95;1.70;;;30.70;1.00;;;;;;4995939;28;20287;-88
2023/06/05 17:29:17;;;;;;;5.35;1.70;;;30.70;1.00;;;;;;4989609;28;20569;-88
2023/06/05 17:31:46;;;;;;;3.00;1.63;;;30.80;1.00;;;;;;4991006;28;20684;-88
2023/06/05 17:34:13;;;;;;;5.80;1.70;;;30.80;1.00;;;;;;4991481;28;20214;-89
2023/06/05 17:36:40;;;;;;;2.63;1.50;;;30.80;1.00;;;;;;4987941;28;20191;-89
2023/06/05 17:39:06;;;;;;;5.75;1.77;;;30.80;1.00;;;;;;4992431;28;20263;-90
2023/06/05 17:41:33;;;;;;;9.25;1.80;;;30.90;1.00;;;;;;4987857;28;20206;-90
2023/06/05 17:44:02;;;;;;;3.40;1.65;;;31.00;1.00;;;;;;4990491;28;20207;-90
2023/06/05 17:46:29;;;;;;;3.42;1.60;;;31.00;1.00;;;;;;4997160;28;20274;-90
2023/06/05 17:48:55;;;;;;;4.45;1.50;;;31.00;1.00;;;;;;4996833;28;20286;-90
2023/06/05 17:51:22;;;;;;;4.47;1.70;;;31.00;1.00;;;;;;4996706;28;20546;-90
2023/06/05 17:53:49;;;;;;;5.18;1.60;;;30.90;1.00;;;;;;4997157;28;20201;-90
2023/06/05 17:56:16;;;;;;;4.90;1.52;;;30.70;1.00;;;;;;4996619;28;20213;-90
2023/06/05 17:58:42;;;;;;;6.40;1.75;;;30.50;1.00;;;;;;4996805;28;20237;-90
2023/06/05 18:01:11;;;;;;;1.75;1.42;;;30.20;1.00;;;;;;4995764;28;20214;-90
2023/06/05 18:03:37;;;;;;;4.05;1.90;;;30.00;1.00;;;;;;4996869;28;20206;-90
2023/06/05 18:06:05;;;;;;;6.53;1.45;;;29.50;1.00;;;;;;4996501;28;20229;-89